Blue Oak Ranch Reserve, California Weather observations

Data are for 10 minute period ending at time listed.
 Day   Time   Solar   Ave.   Ave.  Ave.  Vector  Max.   Baro.   Total    
  of    of     Rad.   Air    Rel.  Wind   Wind   Wind  Press.  Precip.   
Year   Day            Temp.  Hum.  Speed  Dir.   Gust                    
2020   (PST)  Kw/m2    F      %     mph   deg.    mph    mb.     in.     
-------------------------------------------------------------------------
  87    4:00   0.00   40.4    88    4.4   289     9.6   950.9    0.00 
  87    4:10   0.00   40.4    87    5.8   315    11.6   951.0    0.00 
  87    4:20   0.00   40.5    87    4.4   306     9.3   951.0    0.00 
  87    4:30   0.00   40.6    87    2.7   294     6.4   951.1    0.00 
  87    4:40   0.00   40.7    87    4.0   286     8.2   951.2    0.00 
  87    4:50   0.00   40.6    88    4.8   302     8.4   951.3    0.00 
  87    5:00   0.00   40.6    88    4.3   298     8.5   951.2    0.00 
  87    5:10   0.00   40.6    88    2.8   295     5.6   951.2    0.00 
  87    5:20   0.00   40.6    88    4.8   290     7.6   951.2    0.00 
  87    5:30   0.00   40.5    88    4.2   317     9.6   951.2    0.00 
  87    5:40   0.00   40.6    86    3.4   294     7.5   951.3    0.00 
  87    5:50   0.00   40.6    87    3.5   294     5.6   951.4    0.00 
  87    6:00   0.00   40.6    86    4.0   300     6.0   951.5    0.00 
  87    6:10   0.00   40.4    86    5.5   293     8.3   951.6    0.00 
  87    6:20   0.01   40.4    85    5.1   292     8.6   951.7    0.00 
  87    6:30   0.01   40.5    84    3.3   294     5.6   951.8    0.00 
  87    6:40   0.02   40.6    84    4.2   295     7.5   951.9    0.00 
  87    6:50   0.03   40.5    82    4.6   296     8.2   952.0    0.00 
  87    7:00   0.04   40.7    82    3.6   290     6.4   952.2    0.00 
  87    7:10   0.05   40.9    83    2.6   298     6.0   952.3    0.00 
  87    7:20   0.05   41.0    82    6.3   294     9.9   952.5    0.00 
  87    7:30   0.07   41.1    82    4.8   291     7.4   952.6    0.00 
  87    7:40   0.08   41.3    81    6.0   290     9.2   952.7    0.00 
  87    7:50   0.10   41.5    79    5.9   287     9.4   952.8    0.00 
  87    8:00   0.10   41.9    80    5.2   284     8.5   953.0    0.00 
  87    8:10   0.10   42.0    81    6.7   284    13.1   953.1    0.00 
  87    8:20   0.18   41.8    81    6.2   285    12.0   953.2    0.00 
  87    8:30   0.21   42.6    78    8.1   286    13.8   953.3    0.00 
  87    8:40   0.23   42.6    75    6.6   298    10.7   953.4    0.00 
  87    8:50   0.23   42.9    74    6.5   283    12.7   953.5    0.00 
  87    9:00   0.31   43.3    72    8.5   289    13.3   953.5    0.00 
  87    9:10   0.29   43.0    73    8.9   282    12.7   953.7    0.00 
  87    9:20   0.45   44.6    69    7.2   286    14.1   953.8    0.00 
  87    9:30   0.42   45.0    70    6.4   287    12.9   953.9    0.00 
  87    9:40   0.66   45.5    66    6.6   277    12.7   954.0    0.00 
  87    9:50   0.41   45.4    66    7.4   297    14.0   954.1    0.00 
  87   10:00   0.36   46.1    65    7.1   287    11.8   954.2    0.00 
  87   10:10   0.55   46.3    66    8.6   285    13.2   954.3    0.00 
  87   10:20   0.32   45.6    67    8.9   287    14.1   954.5    0.00 
  87   10:30   0.40   45.9    68    6.3   292    10.4   954.5    0.00 
  87   10:40   0.42   45.3    67    4.4   291    10.4   954.5    0.00 
  87   10:50   0.44   47.3    63    6.8   273    11.7   954.5    0.00 
  87   11:00   0.37   47.2    60    6.0   273    11.8   954.5    0.00 
  87   11:10   0.57   47.6    60    5.7   272     9.5   954.4    0.00 
  87   11:20   100.00   48.0    59    4.9   214    12.4   954.4    0.00 
  87   11:30   0.36   47.5    62    8.5   293    15.6   954.4    0.00 
  87   11:40   0.46   47.2    60    6.5   271    12.2   954.4    0.00 
  87   11:50   0.75   49.6    56    3.9   264    10.4   954.3    0.00 
  87   12:00   100.00   50.0    56    6.2   253    11.4   954.2    0.00 
  87   12:10   0.58   49.0    59    7.2   281    13.9   954.3    0.00 
  87   12:20   0.89   50.4    56    8.9   278    14.6   954.2    0.00 
  87   12:30   0.52   49.8    56    5.7   267    12.4   954.2    0.00 
  87   12:40   0.73   49.5    57    6.2   286    16.3   954.2    0.00 
  87   12:50   1.00   51.6    55    8.4   278    16.0   954.1    0.00 
  87   13:00   1.02   51.9    54    8.5   287    14.5   954.1    0.00 
  87   13:10   0.89   52.2    54    7.0   276    12.2   954.1    0.00 
  87   13:20   0.51   50.6    57    8.3   289    14.1   954.2    0.00 
  87   13:30   0.81   51.6    55    8.5   280    13.7   954.2    0.00 
  87   13:40   0.39   50.0    56    5.3   250    11.8   954.1    0.00 
  87   13:50   0.60   50.5    57    9.7   284    14.0   954.1    0.00 
  87   14:00   0.63   50.7    56    9.0   287    15.1   954.0    0.00 
  87   14:10   0.68   50.4    55    5.0   282     9.8   953.9    0.00 
  87   14:20   0.60   51.4    55    7.4   268    11.6   953.9    0.00 
  87   14:30   0.89   51.9    55    8.1   306    14.1   953.9    0.00 
  87   14:40   0.77   51.9    54    8.6   290    13.6   953.9    0.00 
  87   14:50   0.71   52.1    51    4.8   281    11.1   953.9    0.00 
  87   15:00   0.69   52.7    50    7.1   274    11.8   953.8    0.00 
  87   15:10   0.47   51.9    52    7.4   297    12.9   953.8    0.00 
  87   15:20   0.35   50.9    54    6.0   287    10.5   953.9    0.00 
  87   15:30   0.41   49.8    57    8.9   293    14.7   953.9    0.00 
  87   15:40   0.30   49.5    58    6.8   291    12.2   953.9    0.00 
  87   15:50   0.45   50.9    56    6.7   285    12.5   953.8    0.00 
  87   16:00   0.20   49.8    58    7.5   290    13.4   953.8    0.00 
  87   16:10   0.36   49.5    58    6.1   305     9.3   953.7    0.00 
  87   16:20   0.15   49.2    58    8.1   285    12.3   953.7    0.00 
  87   16:30   0.13   48.7    60    8.3   292    12.0   953.8    0.00 
  87   16:40   0.09   47.9    61    8.0   296    11.0   953.9    0.00 
  87   16:50   0.34   48.7    61    7.0   301    12.8   954.0    0.00 
  87   17:00   0.22   49.5    62    9.9   287    14.2   954.1    0.00 
  87   17:10   0.15   48.3    64    8.1   292    13.2   954.2    0.00 
  87   17:20   0.14   48.1    65    9.7   293    16.3   954.3    0.00 
  87   17:30   0.07   47.2    68    8.5   301    12.6   954.4    0.00 
  87   17:40   0.06   47.2    69    8.0   294    12.1   954.4    0.00 
  87   17:50   0.05   46.7    70    8.2   296    12.1   954.5    0.00 
  87   18:00   0.03   46.3    72    7.7   295    11.3   954.5    0.00 
  87   18:10   0.02   46.4    72    4.6   291     8.8   954.5    0.00 
  87   18:20   0.02   46.1    72    6.5   289    10.4   954.5    0.00 
  87   18:30   0.01   45.6    72    4.9   298     9.3   954.5    0.00 
  87   18:40   0.00   44.8    74    2.1   315     3.9   954.5    0.00 
  87   18:50   0.00   44.1    76    2.3   336     4.1   954.6    0.00 
  87   19:00   0.00   43.6    77    3.0   340     5.0   954.6    0.00 
  87   19:10   0.00   43.3    78    3.1   340     4.5   954.6    0.00 
  87   19:20   0.00   43.0    79    1.8   342     4.2   954.7    0.00 
  87   19:30   0.00   42.0    80    1.7     8     2.7   954.8    0.00 
  87   19:40   0.00   41.0    82    1.3   343     2.8   954.8    0.00 
  87   19:50   0.00   40.2    83    0.4   352     2.7   954.8    0.00 
  87   20:00   0.00   40.0    84    0.8   291     1.9   954.9    0.00 
  87   20:10   0.00   39.1    86    1.1    40     2.0   955.0    0.00 
  87   20:20   0.00   38.8    87    1.1    45     2.5   955.1    0.00 
  87   20:30   0.00   38.5    87    0.8   325     2.0   955.1    0.00 
  87   20:40   0.00   38.3    88    0.5    40     2.0   955.2    0.00 
  87   20:50   0.00   37.9    89    1.3   293     2.5   955.3    0.00 
  87   21:00   0.00   37.6    90    1.4    50     2.3   955.3    0.00 
  87   21:10   0.00   37.7    90    0.1     9     1.3   955.3    0.00 
  87   21:20   0.00   37.6    90    0.6   304     1.5   955.3    0.00 
  87   21:30   0.00   37.3    90    0.3   262     1.0   955.4    0.00 
  87   21:40   0.00   37.6    91    0.9    26     1.8   955.4    0.00 
  87   21:50   0.00   37.9    91    0.2    12     1.3   955.3    0.00 
  87   22:00   0.00   37.3    91    1.8   289     3.2   955.4    0.00 
  87   22:10   0.00   37.2    92    1.3     9     2.9   955.4    0.00 
  87   22:20   0.00   37.2    92    1.3   314     3.2   955.4    0.00 
  87   22:30   0.00   37.3    92    0.9    60     1.8   955.4    0.00 
  87   22:40   0.00   37.1    92    0.6   318     2.3   955.4    0.00 
  87   22:50   0.00   36.6    92    2.5   293     3.9   955.3    0.00 
  87   23:00   0.00   36.3    93    1.4    62     2.6   955.2    0.00 
  87   23:10   0.00   36.5    93    2.9   319     4.4   955.2    0.00 
  87   23:20   0.00   36.8    94    0.7   334     1.9   955.2    0.00 
  87   23:30   0.00   37.5    93    1.0    20     2.5   955.1    0.00 
  87   23:40   0.00   36.9    93    3.2   287     4.5   955.1    0.00 
  87   23:50   0.00   37.0    93    0.8   331     3.7   955.2    0.00 
  88    0:00   0.00   37.7    94    1.1   281     2.5   955.2    0.00 
  88    0:10   0.00   38.0    93    0.0   284     0.7   955.2    0.00 
  88    0:20   0.00   38.1    93    1.4   289     2.1   955.3    0.00 
  88    0:30   0.00   38.4    93    1.0   302     1.8   955.3    0.00 
  88    0:40   0.00   38.9    93    0.2    79     1.0   955.3    0.00 
  88    0:50   0.00   39.5    93    0.0     0     0.0   955.2    0.00 
  88    1:00   0.00   39.9    93    0.2    80     1.0   955.2    0.00 
  88    1:10   0.00   40.0    93    0.3   302     1.3   955.2    0.00 
  88    1:20   0.00   39.4    93    0.1   315     1.0   955.1    0.00 
  88    1:30   0.00   39.1    93    0.4   354     1.8   955.0    0.00 
  88    1:40   0.00   38.8    93    1.4    26     2.8   954.9    0.00 
  88    1:50   0.00   38.2    93    0.4   287     1.6   954.9    0.00 
  88    2:00   0.00   38.1    93    0.8   101     1.8   954.8    0.00 
  88    2:10   0.00   38.3    93    0.7   286     2.6   954.6    0.00 
  88    2:20   0.00   38.5    93    2.4   290     3.9   954.6    0.00 
  88    2:30   0.00   38.6    93    1.2   292     3.5   954.6    0.00 
  88    2:40   0.00   38.9    94    0.5   319     1.6   954.6    0.00 
  88    2:50   0.00   39.6    93    1.0    43     1.8   954.6    0.00 
  88    3:00   0.00   39.7    93    0.0    60     0.8   954.6    0.00 
  88    3:10   0.00   40.0    93    0.2    16     1.1   954.6    0.00 
  88    3:20   0.00   40.4    93    0.7    55     1.6   954.6    0.00 
  88    3:30   0.00   40.6    92    0.7   290     2.0   954.5    0.00 
  88    3:40   0.00   40.6    93    1.5   292     2.0   954.5    0.00 
  88    3:50   0.00   40.7    93    0.2     2     0.8   954.4    0.00 

Return to Blue Oak Ranch Reserve graphs page.


Western Regional Climate Center,wrcc@dri.edu